createdAt,value
2023-05-02T00:01:25.518Z,8.07
2023-05-02T00:03:52.237Z,10.13
2023-05-02T00:06:19.100Z,9.73
2023-05-02T00:08:45.849Z,11.03
2023-05-02T00:11:14.457Z,11.73
2023-05-02T00:13:41.341Z,13.03
2023-05-02T00:16:08.103Z,12.87
2023-05-02T00:18:34.734Z,11.20
2023-05-02T00:21:01.390Z,11.37
2023-05-02T00:23:27.964Z,12.10
2023-05-02T00:25:55.637Z,11.67
2023-05-02T00:28:22.308Z,9.97
2023-05-02T00:30:49.213Z,10.63
2023-05-02T00:33:16.097Z,10.40
2023-05-02T00:35:42.860Z,8.73
2023-05-02T00:38:10.651Z,9.53
2023-05-02T00:40:47.760Z,8.33
2023-05-02T00:43:15.082Z,8.17
2023-05-02T00:45:42.264Z,7.97
2023-05-02T00:48:12.092Z,7.77
2023-05-02T00:50:43.489Z,7.47
2023-05-02T00:53:11.316Z,7.83
2023-05-02T00:55:38.016Z,7.30
2023-05-02T00:58:05.805Z,7.17
2023-05-02T01:00:41.708Z,6.93
2023-05-02T01:03:38.607Z,6.77
2023-05-02T01:06:11.554Z,5.77
2023-05-02T01:08:47.012Z,7.10
2023-05-02T01:11:18.292Z,6.43
2023-05-02T01:13:45.825Z,6.70
2023-05-02T01:16:12.750Z,6.77
2023-05-02T01:18:40.982Z,6.60
2023-05-02T01:21:08.077Z,7.10
2023-05-02T01:23:39.355Z,6.53
2023-05-02T01:26:21.405Z,6.57
2023-05-02T01:28:48.848Z,6.00
2023-05-02T01:31:15.583Z,5.83
2023-05-02T01:33:43.121Z,5.67
2023-05-02T01:36:11.355Z,6.00
2023-05-02T01:38:38.039Z,6.27
2023-05-02T01:41:06.994Z,5.70
2023-05-02T02:18:33.792Z,8.30
2023-05-02T02:21:01.139Z,6.43
2023-05-02T02:23:28.218Z,6.87
2023-05-02T02:25:55.701Z,7.20
2023-05-02T02:28:22.428Z,6.70
2023-05-02T02:30:49.097Z,6.87
2023-05-02T02:33:15.817Z,6.07
2023-05-02T02:35:42.884Z,7.13
2023-05-02T02:38:25.918Z,7.13
2023-05-02T02:40:56.443Z,7.00
2023-05-02T02:43:23.189Z,6.73
2023-05-02T02:46:22.476Z,6.37
2023-05-02T02:49:01.447Z,6.60
2023-05-02T02:51:55.204Z,6.23
2023-05-02T02:54:31.878Z,6.60
2023-05-02T02:57:24.666Z,6.73
2023-05-02T02:59:59.044Z,9.37
2023-05-02T03:02:29.493Z,7.27
2023-05-02T03:04:56.290Z,6.83
2023-05-02T03:07:23.311Z,6.37
2023-05-02T03:09:50.403Z,6.00
2023-05-02T03:12:21.418Z,6.63
2023-05-02T03:14:49.560Z,6.60
2023-05-02T03:17:17.281Z,7.00
2023-05-02T03:19:44.109Z,6.63
2023-05-02T03:22:12.086Z,6.97
2023-05-02T03:24:40.449Z,6.70
2023-05-02T03:27:08.044Z,7.30
2023-05-02T03:29:40.654Z,6.93
2023-05-02T03:32:08.410Z,6.83
2023-05-02T03:34:37.474Z,7.03
2023-05-02T03:37:05.189Z,7.00
2023-05-02T03:39:32.235Z,6.40
2023-05-02T03:41:58.934Z,6.77
2023-05-02T03:44:25.716Z,6.57
2023-05-02T03:46:53.264Z,7.07
2023-05-02T03:49:20.227Z,6.57
2023-05-02T03:51:49.513Z,7.13
2023-05-02T03:54:21.240Z,6.43
2023-05-02T03:56:48.229Z,7.50
2023-05-02T03:59:22.116Z,6.60
2023-05-02T04:01:50.427Z,7.27
2023-05-02T04:04:19.391Z,6.90
2023-05-02T04:06:49.975Z,6.50
2023-05-02T04:09:17.877Z,6.60
2023-05-02T04:11:54.343Z,6.70
2023-05-02T04:14:21.744Z,6.50
2023-05-02T04:16:50.899Z,6.60
2023-05-02T04:19:22.994Z,6.77
2023-05-02T04:21:49.940Z,6.57
2023-05-02T04:24:17.311Z,6.63
2023-05-02T04:26:47.713Z,6.40
2023-05-02T04:29:15.365Z,6.73
2023-05-02T04:31:45.970Z,7.00
2023-05-02T04:34:16.112Z,6.53
2023-05-02T04:36:46.186Z,7.03
2023-05-02T04:39:17.180Z,7.70
2023-05-02T04:41:53.865Z,6.63
2023-05-02T04:44:22.944Z,7.23
2023-05-02T04:46:50.329Z,7.70
2023-05-02T04:49:18.998Z,6.33
2023-05-02T04:51:45.935Z,6.77
2023-05-02T04:54:13.903Z,6.90
2023-05-02T04:56:42.730Z,6.53
2023-05-02T04:59:11.414Z,7.20
2023-05-02T05:01:38.754Z,7.03
2023-05-02T05:04:11.907Z,6.87
2023-05-02T05:06:39.705Z,6.87
2023-05-02T05:09:06.425Z,6.77
2023-05-02T05:11:35.439Z,6.20
2023-05-02T05:14:04.208Z,5.40
2023-05-02T05:16:33.100Z,5.00
2023-05-02T05:19:00.172Z,5.23
2023-05-02T05:21:35.576Z,4.93
2023-05-02T05:24:02.992Z,5.47
2023-05-02T05:26:30.078Z,5.00
2023-05-02T05:28:57.946Z,4.90
2023-05-02T05:31:27.815Z,5.37
2023-05-02T05:33:57.786Z,4.47
2023-05-02T05:36:26.101Z,5.50
2023-05-02T05:38:52.930Z,4.67
2023-05-02T05:41:20.428Z,5.00
2023-05-02T05:43:52.042Z,4.50
2023-05-02T05:46:18.733Z,4.67
2023-05-02T05:48:45.449Z,4.60
2023-05-02T05:51:12.497Z,4.73
2023-05-02T05:53:39.190Z,5.03
2023-05-02T05:56:09.839Z,4.57
2023-05-02T05:58:38.311Z,5.17
2023-05-02T06:01:06.393Z,5.00
2023-05-02T06:03:34.936Z,5.17
2023-05-02T06:06:01.998Z,4.83
2023-05-02T06:08:28.674Z,4.70
2023-05-02T06:10:55.469Z,4.60
2023-05-02T06:13:23.480Z,4.87
2023-05-02T06:15:50.766Z,4.33
2023-05-02T06:18:17.532Z,4.30
2023-05-02T06:20:44.252Z,4.63
2023-05-02T06:23:10.949Z,4.47
2023-05-02T06:25:37.916Z,5.33
2023-05-02T06:28:04.675Z,4.80
2023-05-02T06:30:31.550Z,5.13
2023-05-02T06:32:58.456Z,4.70
2023-05-02T06:35:25.203Z,4.47
2023-05-02T06:37:51.826Z,4.60
2023-05-02T06:40:18.731Z,4.97
2023-05-02T06:42:46.813Z,4.73
2023-05-02T06:45:13.781Z,5.27
2023-05-02T06:47:41.604Z,4.77
2023-05-02T06:50:11.880Z,4.60
2023-05-02T06:52:39.619Z,5.03
2023-05-02T06:55:06.582Z,4.67
2023-05-02T06:57:34.108Z,5.10
2023-05-02T07:00:01.372Z,5.10
2023-05-02T07:02:30.709Z,4.93
2023-05-02T07:05:00.486Z,5.33
2023-05-02T07:07:27.231Z,5.70
2023-05-02T07:09:53.933Z,5.97
2023-05-02T07:12:23.904Z,5.10
2023-05-02T07:14:50.714Z,5.47
2023-05-02T07:17:17.519Z,5.30
2023-05-02T07:19:45.505Z,5.10
2023-05-02T07:22:12.600Z,4.60
2023-05-02T07:24:42.296Z,4.53
2023-05-02T07:27:09.816Z,4.30
2023-05-02T07:29:36.462Z,3.97
2023-05-02T07:32:03.749Z,4.53
2023-05-02T07:34:30.417Z,4.83
2023-05-02T07:36:58.187Z,4.93
2023-05-02T07:39:25.180Z,5.33
2023-05-02T07:41:53.154Z,4.90
2023-05-02T07:44:20.243Z,5.00
2023-05-02T07:46:47.772Z,4.87
2023-05-02T07:49:15.772Z,5.33
2023-05-02T07:51:43.178Z,2.73
2023-05-02T07:54:19.714Z,3.03
2023-05-02T07:56:47.740Z,3.00
2023-05-02T07:59:14.535Z,3.10
2023-05-02T08:01:41.849Z,2.90
2023-05-02T08:04:10.765Z,3.30
2023-05-02T08:06:38.164Z,2.70
2023-05-02T08:09:07.241Z,2.40
2023-05-02T08:11:33.911Z,2.40
2023-05-02T08:14:00.744Z,2.40
2023-05-02T08:16:29.740Z,2.23
2023-05-02T08:18:56.707Z,2.50
2023-05-02T08:21:24.480Z,1.90
2023-05-02T08:23:51.275Z,1.80
2023-05-02T08:26:19.156Z,1.93
2023-05-02T08:28:46.146Z,2.07
2023-05-02T08:31:13.003Z,2.20
2023-05-02T08:33:39.908Z,1.77
2023-05-02T08:36:16.181Z,2.03
2023-05-02T08:38:43.277Z,2.33
2023-05-02T08:41:10.736Z,2.80
2023-05-02T08:43:40.477Z,2.60
2023-05-02T08:46:10.202Z,2.13
2023-05-02T08:48:37.329Z,1.97
2023-05-02T08:51:05.252Z,2.03
2023-05-02T08:53:32.832Z,2.20
2023-05-02T08:56:00.554Z,1.70
2023-05-02T08:58:27.805Z,2.13
2023-05-02T09:00:56.155Z,1.63
2023-05-02T09:03:33.585Z,1.80
2023-05-02T09:06:03.565Z,1.70
2023-05-02T09:08:30.396Z,2.30
2023-05-02T09:10:57.750Z,1.83
2023-05-02T09:13:30.886Z,2.10
2023-05-02T09:16:00.017Z,2.40
2023-05-02T09:18:31.056Z,2.30
2023-05-02T09:21:01.481Z,2.27
2023-05-02T09:23:37.326Z,2.53
2023-05-02T09:26:23.118Z,3.10
2023-05-02T09:28:51.064Z,3.13
2023-05-02T09:31:26.831Z,2.83
2023-05-02T09:34:08.646Z,3.23
2023-05-02T09:36:39.935Z,3.33
2023-05-02T09:39:11.363Z,3.93
2023-05-02T09:41:45.779Z,4.37
2023-05-02T09:44:13.395Z,4.47
2023-05-02T09:46:43.786Z,5.17
2023-05-02T09:49:10.689Z,5.43
2023-05-02T09:51:37.600Z,6.10
2023-05-02T09:54:04.816Z,6.33
2023-05-02T09:56:31.832Z,6.37
2023-05-02T09:59:14.926Z,5.97
2023-05-02T10:01:44.541Z,6.27
2023-05-02T10:04:14.461Z,6.33
2023-05-02T10:06:41.493Z,6.03
2023-05-02T10:09:08.574Z,6.40
2023-05-02T10:11:35.224Z,6.67
2023-05-02T10:14:03.034Z,6.83
2023-05-02T10:16:30.315Z,6.17
2023-05-02T10:19:03.750Z,6.07
2023-05-02T10:21:30.608Z,6.53
2023-05-02T10:23:57.708Z,6.10
2023-05-02T10:26:25.212Z,5.93
2023-05-02T10:28:52.478Z,5.50
2023-05-02T10:31:19.599Z,5.03
2023-05-02T10:33:48.420Z,5.60
2023-05-02T10:36:15.334Z,5.57
2023-05-02T10:38:42.428Z,6.23
2023-05-02T10:41:14.067Z,5.80
2023-05-02T10:43:43.794Z,5.70
2023-05-02T10:46:30.317Z,5.80
2023-05-02T10:49:12.904Z,5.60
2023-05-02T10:51:40.423Z,5.43
2023-05-02T10:54:16.284Z,6.27
2023-05-02T10:57:05.939Z,6.20
2023-05-02T10:59:42.719Z,5.80
2023-05-02T11:02:23.683Z,5.50
2023-05-02T11:05:04.571Z,5.47
2023-05-02T11:07:32.456Z,5.67
2023-05-02T11:10:17.690Z,6.87
2023-05-02T11:12:49.585Z,6.97
2023-05-02T11:15:38.495Z,7.20
2023-05-02T11:18:09.104Z,7.70
2023-05-02T11:20:37.746Z,7.70
2023-05-02T11:23:25.550Z,7.20
2023-05-02T11:25:56.114Z,6.97
2023-05-02T11:28:39.938Z,7.53
2023-05-02T11:31:10.344Z,6.70
2023-05-02T11:33:37.053Z,4.87
2023-05-02T11:36:07.481Z,3.60
2023-05-02T11:38:35.695Z,3.70
2023-05-02T11:41:04.526Z,3.63
2023-05-02T11:43:32.385Z,3.30
2023-05-02T11:46:00.397Z,3.50
2023-05-02T11:48:30.191Z,4.00
2023-05-02T11:50:58.300Z,3.80
2023-05-02T11:53:25.716Z,2.87
2023-05-02T11:55:57.555Z,2.93
2023-05-02T11:58:25.643Z,2.63
2023-05-02T12:00:52.952Z,3.30
2023-05-02T12:03:31.110Z,3.30
2023-05-02T12:05:58.490Z,3.20
2023-05-02T12:08:27.525Z,3.60
2023-05-02T12:10:56.106Z,3.60
2023-05-02T12:13:23.755Z,3.97
2023-05-02T12:15:55.008Z,3.97
2023-05-02T12:18:23.991Z,4.03
2023-05-02T12:20:52.101Z,4.60
2023-05-02T12:23:20.040Z,5.53
2023-05-02T12:25:47.117Z,5.37
2023-05-02T12:28:14.720Z,4.83
2023-05-02T12:30:41.971Z,5.27
2023-05-02T12:33:09.082Z,5.07
2023-05-02T12:35:36.282Z,4.60
2023-05-02T12:38:10.488Z,4.60
2023-05-02T12:40:37.582Z,5.03
2023-05-02T12:43:06.914Z,5.80
2023-05-02T12:45:35.139Z,6.00
2023-05-02T12:48:02.496Z,5.47
2023-05-02T12:50:37.086Z,4.80
2023-05-02T12:53:04.168Z,4.53
2023-05-02T12:55:34.620Z,5.23
2023-05-02T12:58:04.923Z,4.40
2023-05-02T13:00:32.314Z,4.37
2023-05-02T13:02:59.896Z,3.60
2023-05-02T13:05:28.240Z,4.70
2023-05-02T13:07:56.833Z,3.70
2023-05-02T13:10:25.060Z,3.93
2023-05-02T13:12:53.456Z,3.53
2023-05-02T13:15:20.344Z,3.50
2023-05-02T13:17:48.929Z,4.23
2023-05-02T13:20:17.228Z,3.23
2023-05-02T13:22:44.118Z,3.00
2023-05-02T13:25:10.875Z,2.43
2023-05-02T13:27:37.720Z,3.23
2023-05-02T13:30:08.502Z,2.60
2023-05-02T13:32:36.408Z,2.77
2023-05-02T13:35:05.590Z,3.57
2023-05-02T13:40:29.894Z,2.50
2023-05-02T13:42:57.712Z,2.37
2023-05-02T13:45:31.048Z,2.50
2023-05-02T13:48:00.024Z,2.10
2023-05-02T13:50:32.151Z,2.30
2023-05-02T13:53:03.961Z,2.40
2023-05-02T13:55:33.239Z,3.60
2023-05-02T13:58:03.665Z,2.07
2023-05-02T14:00:35.602Z,2.50
2023-05-02T14:03:21.840Z,2.10
2023-05-02T14:06:08.427Z,1.90
2023-05-02T14:08:43.986Z,1.77
2023-05-02T14:11:25.804Z,1.40
2023-05-02T14:14:18.883Z,1.47
2023-05-02T14:24:25.221Z,1.50
2023-05-02T14:34:44.644Z,1.30
2023-05-02T14:50:53.301Z,0.90
2023-05-02T14:54:47.500Z,0.80
2023-05-02T15:01:45.625Z,0.97
2023-05-02T15:05:17.175Z,1.10
2023-05-02T15:09:20.753Z,1.00
2023-05-02T15:13:14.641Z,1.00
2023-05-02T15:19:58.369Z,0.97
2023-05-02T15:46:44.535Z,1.00
2023-05-02T15:58:29.821Z,1.20
2023-05-02T16:05:10.046Z,3.83
2023-05-02T16:08:22.162Z,2.00
2023-05-02T16:19:24.634Z,1.20
2023-05-02T16:23:13.358Z,0.90
2023-05-02T16:37:13.091Z,1.50
2023-05-02T16:47:58.044Z,1.37
2023-05-02T16:50:25.993Z,1.20
2023-05-02T16:52:52.707Z,1.17
2023-05-02T16:55:20.275Z,2.37
2023-05-02T16:57:51.220Z,1.30
2023-05-02T17:00:19.687Z,1.30
2023-05-02T17:02:47.110Z,1.00
2023-05-02T17:05:13.928Z,1.00
2023-05-02T17:07:40.654Z,2.37
2023-05-02T17:10:08.684Z,1.67
2023-05-02T17:12:35.490Z,1.40
2023-05-02T17:15:03.604Z,1.33
2023-05-02T17:17:31.097Z,1.60
2023-05-02T17:19:58.685Z,1.70
2023-05-02T17:22:26.347Z,1.00
2023-05-02T17:24:54.838Z,1.07
2023-05-02T17:27:21.584Z,2.37
2023-05-02T17:29:48.299Z,1.73
2023-05-02T17:32:16.025Z,1.00
2023-05-02T17:34:46.423Z,1.20
2023-05-02T17:37:13.320Z,1.03
2023-05-02T17:39:41.088Z,1.03
2023-05-02T17:42:08.263Z,1.13
2023-05-02T17:44:36.319Z,1.60
2023-05-02T17:47:03.369Z,1.37
2023-05-02T17:49:31.185Z,1.43
2023-05-02T17:51:57.892Z,1.47
2023-05-02T17:54:26.157Z,2.00
2023-05-02T17:56:53.427Z,1.50
2023-05-02T17:59:20.762Z,1.47
2023-05-02T18:01:48.055Z,1.50
2023-05-02T18:04:15.790Z,3.13
2023-05-02T18:06:43.170Z,1.83
2023-05-02T18:09:09.937Z,2.03
2023-05-02T18:11:41.368Z,1.50
2023-05-02T18:14:08.175Z,1.67
2023-05-02T18:16:36.528Z,1.70
2023-05-02T18:19:04.323Z,1.80
2023-05-02T18:21:34.913Z,2.13
2023-05-02T18:24:01.578Z,2.10
2023-05-02T18:26:28.241Z,1.70
2023-05-02T18:28:54.973Z,2.10
2023-05-02T18:31:21.689Z,2.00
2023-05-02T18:33:48.480Z,2.50
2023-05-02T18:36:19.381Z,2.70
2023-05-02T18:38:46.897Z,5.53
2023-05-02T18:41:13.566Z,3.83
2023-05-02T18:43:40.896Z,3.20
2023-05-02T18:46:07.945Z,3.70
2023-05-02T18:48:36.188Z,3.90
2023-05-02T18:51:04.013Z,14.83
2023-05-02T18:53:30.909Z,7.87
2023-05-02T18:56:00.798Z,10.43
2023-05-02T18:58:27.527Z,8.73
2023-05-02T19:00:54.483Z,7.50
2023-05-02T19:03:21.359Z,6.87
2023-05-02T19:05:50.257Z,6.20
2023-05-02T19:08:17.188Z,6.00
2023-05-02T19:10:44.027Z,6.47
2023-05-02T19:13:10.747Z,6.10
2023-05-02T19:15:39.043Z,5.80
2023-05-02T19:20:57.426Z,6.23
2023-05-02T19:23:25.667Z,5.37
2023-05-02T19:25:54.611Z,5.60
2023-05-02T19:28:21.838Z,8.27
2023-05-02T19:30:52.658Z,7.07
2023-05-02T19:33:19.969Z,8.17
2023-05-02T19:35:51.656Z,7.27
2023-05-02T19:38:19.109Z,9.67
2023-05-02T19:40:47.132Z,12.13
2023-05-02T19:43:13.861Z,12.00
2023-05-02T19:45:41.927Z,13.00
2023-05-02T19:48:08.908Z,12.80
2023-05-02T19:50:36.328Z,9.17
2023-05-02T19:53:04.685Z,10.50
2023-05-02T19:55:32.803Z,9.97
2023-05-02T19:58:00.804Z,10.10
2023-05-02T20:00:27.490Z,9.67
2023-05-02T20:02:59.281Z,9.00
2023-05-02T20:05:26.733Z,8.83
2023-05-02T20:07:53.884Z,9.00
2023-05-02T20:10:23.168Z,10.50
2023-05-02T20:12:50.056Z,12.57
2023-05-02T20:15:17.554Z,30.83
2023-05-02T20:18:04.735Z,8.77
2023-05-02T20:20:32.176Z,11.77
2023-05-02T20:22:59.439Z,10.97
2023-05-02T20:25:28.505Z,13.50
2023-05-02T20:27:58.887Z,14.97
2023-05-02T20:30:25.798Z,14.07
2023-05-02T20:32:52.869Z,13.40
2023-05-02T20:35:20.917Z,14.57
2023-05-02T20:37:49.881Z,12.57
2023-05-02T20:40:16.929Z,12.80
2023-05-02T20:42:44.041Z,12.43
2023-05-02T20:45:15.145Z,12.10
2023-05-02T20:47:42.703Z,10.90
2023-05-02T20:50:12.814Z,11.00
2023-05-02T20:52:39.710Z,11.37
2023-05-02T20:55:07.242Z,11.10
2023-05-02T20:57:35.233Z,11.03
2023-05-02T21:00:02.902Z,9.70
2023-05-02T21:02:29.992Z,9.57
2023-05-02T21:04:57.951Z,8.30
2023-05-02T21:07:24.680Z,9.73
2023-05-02T21:09:52.415Z,9.90
2023-05-02T21:12:24.104Z,8.70
2023-05-02T21:14:50.823Z,10.37
2023-05-02T21:17:17.648Z,9.23
2023-05-02T21:19:44.553Z,10.00
2023-05-02T21:22:11.391Z,9.03
2023-05-02T21:24:38.049Z,9.73
2023-05-02T21:27:05.192Z,10.10
2023-05-02T21:29:34.515Z,9.97
2023-05-02T21:32:01.555Z,9.37
2023-05-02T21:34:29.962Z,10.57
2023-05-02T21:36:57.418Z,10.40
2023-05-02T21:39:24.210Z,9.90
2023-05-02T21:41:53.770Z,10.67
2023-05-02T21:44:20.864Z,10.23
2023-05-02T21:46:47.662Z,9.97
2023-05-02T21:49:15.810Z,9.93
2023-05-02T21:51:42.499Z,10.70
2023-05-02T21:54:09.201Z,9.90
2023-05-02T21:56:35.859Z,9.37
2023-05-02T21:59:03.099Z,9.73
2023-05-02T22:01:29.905Z,9.97
2023-05-02T22:03:59.372Z,9.87
2023-05-02T22:06:26.354Z,10.03
2023-05-02T22:08:53.640Z,11.00
2023-05-02T22:11:22.922Z,10.90
2023-05-02T22:13:49.648Z,10.97
2023-05-02T22:16:16.489Z,11.20
2023-05-02T22:18:45.478Z,11.87
2023-05-02T22:21:12.238Z,11.97
2023-05-02T22:23:39.047Z,12.73
2023-05-02T22:26:05.691Z,13.90
2023-05-02T22:28:32.330Z,13.70
2023-05-02T22:30:59.019Z,12.90
2023-05-02T22:33:25.596Z,14.23
2023-05-02T22:35:52.316Z,16.87
2023-05-02T22:38:19.382Z,16.67
2023-05-02T22:40:46.725Z,16.70
2023-05-02T22:43:13.444Z,16.40
2023-05-02T22:45:40.704Z,14.73
2023-05-02T22:48:07.803Z,15.97
2023-05-02T22:50:34.457Z,15.27
2023-05-02T22:53:04.049Z,14.83
2023-05-02T22:55:31.730Z,15.10
2023-05-02T22:57:58.415Z,16.00
2023-05-02T23:00:25.249Z,16.93
2023-05-02T23:02:52.053Z,16.87
2023-05-02T23:05:18.954Z,16.50
2023-05-02T23:07:45.569Z,16.20
2023-05-02T23:10:13.083Z,16.20
2023-05-02T23:12:39.782Z,16.30
2023-05-02T23:15:07.071Z,15.77
2023-05-02T23:17:33.817Z,16.00
2023-05-02T23:20:01.813Z,15.87
2023-05-02T23:22:28.685Z,15.70
2023-05-02T23:24:55.546Z,15.43
2023-05-02T23:27:22.299Z,17.20
2023-05-02T23:29:49.825Z,16.43
2023-05-02T23:32:16.450Z,17.73
2023-05-02T23:34:43.284Z,17.60
2023-05-02T23:37:10.425Z,17.40
2023-05-02T23:39:37.390Z,17.97
2023-05-02T23:42:04.529Z,18.33
2023-05-02T23:44:34.028Z,16.73
2023-05-02T23:47:01.554Z,18.07
2023-05-02T23:49:28.241Z,16.77
2023-05-02T23:51:54.885Z,17.37
2023-05-02T23:54:21.633Z,17.03
2023-05-02T23:56:48.227Z,16.60
2023-05-02T23:59:15.413Z,16.27
